CAN6 weather

Prince Rupert/Digby Island Seaplane Base
Prince Rupert, British Columbia, Canada

Public forecast

Using degrees Celsius for public forecast. Weather courtesy of forecast.io.

METAR (pilot weather report)

Closest report is Prince Rupert Airport, 2.2 nm (4.0 km) SW. Retrieved 2019/07/22 23:34 UTC (10 minutes ago):

CYPR 222334Z AUTO 23006KT 180V250 9SM FEW027 SCT090 19/16 A2994 RMK LTNG DIST ALQDS SLP142 DENSITY ALT 500FT

TAF (pilot weather forecast)

Closest forecast is Prince Rupert Airport, 2.2 nm (4.0 km) SW. Retrieved 2019/07/22 19:42 UTC (4 hours ago):

TAF TAF CYPR 221839Z 2219/2307 28005KT P6SM FEW090 SCT220 FM222200 13006KT P6SM SCT040 BKN080 TEMPO 2222/2303 P6SM -SHRA BKN040 OVC070 PROB30 2222/2303 4SM TSRA BKN040CB OVC070 FM230300 11006KT P6SM BKN040 RMK FCST BASED ON AUTO OBS. NXT FCST BY 230100Z